Time;durP1;ratioP1;P1;durP2;ratioP2;P2;SDS_P1;SDS_P2;PMS_P1;PMS_P2;Temp;Humidity;BMP_temperature;BMP_pressure;BME280_temperature;BME280_humidity;BME280_pressure;Samples;Min_cycle;Max_cycle;Signal;HPM_P1;HPM_P2
2023/01/14 00:00:46;;;;;;;;;;;;;;;;;;5074935;28;20296;-43
2023/01/14 00:03:11;;;;;;;;;;;;;;;;;;5071356;28;19970;-43
2023/01/14 00:05:36;;;;;;;;;;;;;;;;;;5072845;28;19927;-44
2023/01/14 00:08:02;;;;;;;;;;;;;;;;;;5080199;28;19948;-44
2023/01/14 00:10:27;;;;;;;;;;;;;;;;;;5076610;28;19921;-43
2023/01/14 00:12:55;;;;;;;;;;;;;;;;;;5073550;28;20022;-43
2023/01/14 00:15:20;;;;;;;;;;;;;;;;;;5076259;28;19927;-44
2023/01/14 00:17:47;;;;;;;;;;;;;;;;;;5083516;28;19924;-43
2023/01/14 00:20:13;;;;;;;;;;;;;;;;;;5076075;28;19920;-43
2023/01/14 00:22:38;;;;;;;;;;;;;;;;;;5107460;27;19932;-43
2023/01/14 00:25:04;;;;;;;;;;;;;;;;;;5067958;28;19924;-42
2023/01/14 00:27:29;;;;;;;;;;;;;;;;;;5073816;28;20010;-43
2023/01/14 00:29:54;;;;;;;;;;;;;;;;;;5079743;28;19947;-43
2023/01/14 00:32:19;;;;;;;;;;;;;;;;;;5076047;28;20013;-43
2023/01/14 00:34:45;;;;;;;;;;;;;;;;;;5080738;28;20381;-43
2023/01/14 00:37:10;;;;;;;;;;;;;;;;;;5076589;28;19995;-44
2023/01/14 00:39:36;;;;;;;;;;;;;;;;;;5074327;28;19929;-42
2023/01/14 00:42:01;;;;;;;;;;;;;;;;;;5074701;28;20864;-45
2023/01/14 00:44:27;;;;;;;;;;;;;;;;;;5058007;28;20047;-43
2023/01/14 00:46:53;;;;;;;;;;;;;;;;;;5057165;28;19935;-42
2023/01/14 00:49:19;;;;;;;;;;;;;;;;;;5057606;28;20019;-43
2023/01/14 00:51:45;;;;;;;;;;;;;;;;;;5052318;28;19925;-43
2023/01/14 00:54:11;;;;;;;;;;;;;;;;;;5079859;28;19928;-43
2023/01/14 00:56:36;;;;;;;;;;;;;;;;;;5065707;28;19924;-43
2023/01/14 00:59:01;;;;;;;;;;;;;;;;;;5061901;28;19927;-43
2023/01/14 01:01:26;;;;;;;;;;;;;;;;;;5058267;28;19940;-43
2023/01/14 01:03:53;;;;;;;;;;;;;;;;;;5054611;28;19935;-44
2023/01/14 01:06:19;;;;;;;;;;;;;;;;;;5053887;28;20366;-45
2023/01/14 01:08:44;;;;;;;;;;;;;;;;;;5054794;28;19939;-44
2023/01/14 01:11:10;;;;;;;;;;;;;;;;;;5055558;28;19924;-44
2023/01/14 01:13:36;;;;;;;;;;;;;;;;;;5065386;28;19931;-43
2023/01/14 01:16:02;;;;;;;;;;;;;;;;;;5076189;28;19959;-44
2023/01/14 01:18:28;;;;;;;;;;;;;;;;;;5062916;28;19925;-43
2023/01/14 01:21:08;;;;;;;;;;;;;;;;;;5055924;28;19962;-42
2023/01/14 01:23:33;;;;;;;;;;;;;;;;;;5070079;28;19959;-44
2023/01/14 01:26:02;;;;;;;;;;;;;;;;;;5074134;28;19952;-43
2023/01/14 01:28:27;;;;;;;;;;;;;;;;;;5058966;28;19940;-44
2023/01/14 01:30:53;;;;;;;;;;;;;;;;;;5051854;28;19924;-43
2023/01/14 01:33:18;;;;;;;;;;;;;;;;;;5051397;28;20304;-42
2023/01/14 01:35:43;;;;;;;;;;;;;;;;;;5055312;28;19920;-45
2023/01/14 01:38:08;;;;;;;;;;;;;;;;;;5065590;28;19977;-46
2023/01/14 01:40:34;;;;;;;;;;;;;;;;;;5070389;28;19947;-43
2023/01/14 01:43:00;;;;;;;;;;;;;;;;;;5074794;28;19928;-44
2023/01/14 01:45:28;;;;;;;;;;;;;;;;;;5077193;28;20303;-43
2023/01/14 01:47:56;;;;;;;;;;;;;;;;;;5062630;28;20365;-43
2023/01/14 01:50:21;;;;;;;;;;;;;;;;;;5060134;28;19921;-45
2023/01/14 01:52:47;;;;;;;;;;;;;;;;;;5053295;28;20297;-46
2023/01/14 01:55:12;;;;;;;;;;;;;;;;;;5054788;28;20293;-43
2023/01/14 01:57:38;;;;;;;;;;;;;;;;;;5051808;28;20292;-44
2023/01/14 02:00:06;;;;;;;;;;;;;;;;;;5051694;28;19921;-52
2023/01/14 02:02:32;;;;;;;;;;;;;;;;;;5056807;28;19968;-44
2023/01/14 02:04:57;;;;;;;;;;;;;;;;;;5075946;28;19967;-44
2023/01/14 02:07:23;;;;;;;;;;;;;;;;;;5073227;28;20403;-44
2023/01/14 02:09:53;;;;;;;;;;;;;;;;;;5072577;28;19970;-43
2023/01/14 02:12:38;;;;;;;;;;;;;;;;;;5072154;28;19920;-42
2023/01/14 02:15:17;;;;;;;;;;;;;;;;;;5071468;28;19920;-45
2023/01/14 02:18:01;;;;;;;;;;;;;;;;;;5068321;28;19925;-42
2023/01/14 02:20:30;;;;;;;;;;;;;;;;;;5049713;28;19921;-43
2023/01/14 02:23:16;;;;;;;;;;;;;;;;;;5064188;28;19924;-46
2023/01/14 02:26:08;;;;;;;;;;;;;;;;;;5070547;28;20026;-42
2023/01/14 02:28:44;;;;;;;;;;;;;;;;;;5068692;28;19929;-43
2023/01/14 02:31:27;;;;;;;;;;;;;;;;;;5073034;28;19920;-42
2023/01/14 02:33:55;;;;;;;;;;;;;;;;;;5075790;28;19928;-44
2023/01/14 02:36:20;;;;;;;;;;;;;;;;;;5072983;28;19995;-42
2023/01/14 02:39:05;;;;;;;;;;;;;;;;;;5070601;28;20023;-45
2023/01/14 02:44:20;;;;;;;;;;;;;;;;;;5048864;28;19936;-43
2023/01/14 02:46:48;;;;;;;;;;;;;;;;;;5046059;28;20065;-43
2023/01/14 02:49:15;;;;;;;;;;;;;;;;;;5070767;28;20019;-44
2023/01/14 02:51:41;;;;;;;;;;;;;;;;;;5074066;28;19920;-45
2023/01/14 02:54:07;;;;;;;;;;;;;;;;;;5058165;28;20507;-43
2023/01/14 02:56:33;;;;;;;;;;;;;;;;;;5048962;28;19939;-43
2023/01/14 02:59:17;;;;;;;;;;;;;;;;;;5071099;28;19935;-49
2023/01/14 03:02:05;;;;;;;;;;;;;;;;;;5075442;28;19916;-48
2023/01/14 03:04:36;;;;;;;;;;;;;;;;;;5051611;28;19925;-41
2023/01/14 03:07:11;;;;;;;;;;;;;;;;;;5054856;28;19913;-44
2023/01/14 03:09:39;;;;;;;;;;;;;;;;;;5051493;28;20380;-43
2023/01/14 03:12:04;;;;;;;;;;;;;;;;;;5051244;28;21352;-43
2023/01/14 03:14:38;;;;;;;;;;;;;;;;;;5072477;28;20381;-43
2023/01/14 03:17:10;;;;;;;;;;;;;;;;;;5072594;28;19920;-43
2023/01/14 03:19:38;;;;;;;;;;;;;;;;;;5054961;28;19933;-43
2023/01/14 03:22:05;;;;;;;;;;;;;;;;;;5056439;28;20011;-44
2023/01/14 03:24:32;;;;;;;;;;;;;;;;;;5051997;28;19948;-45
2023/01/14 03:27:00;;;;;;;;;;;;;;;;;;5059130;28;19998;-43
2023/01/14 03:29:32;;;;;;;;;;;;;;;;;;5056477;28;19982;-42
2023/01/14 03:32:03;;;;;;;;;;;;;;;;;;5058917;28;19944;-44
2023/01/14 03:34:31;;;;;;;;;;;;;;;;;;5053338;28;20377;-43
2023/01/14 03:36:58;;;;;;;;;;;;;;;;;;5057624;28;19921;-44
2023/01/14 03:39:24;;;;;;;;;;;;;;;;;;5089728;28;20350;-43
2023/01/14 03:44:40;;;;;;;;;;;;;;;;;;5074299;28;19976;-44
2023/01/14 03:47:05;;;;;;;;;;;;;;;;;;5079774;28;19925;-44
2023/01/14 03:49:30;;;;;;;;;;;;;;;;;;5077132;28;19952;-43
2023/01/14 03:52:09;;;;;;;;;;;;;;;;;;5076805;28;19965;-50
2023/01/14 03:54:38;;;;;;;;;;;;;;;;;;5075082;28;20280;-48
2023/01/14 03:57:03;;;;;;;;;;;;;;;;;;5076063;28;20280;-44
2023/01/14 03:59:33;;;;;;;;;;;;;;;;;;5075426;28;19924;-43
2023/01/14 04:02:00;;;;;;;;;;;;;;;;;;5080006;28;19927;-46
2023/01/14 04:04:26;;;;;;;;;;;;;;;;;;5077708;28;19931;-49
2023/01/14 04:06:51;;;;;;;;;;;;;;;;;;5078248;28;19924;-44
2023/01/14 04:09:16;;;;;;;;;;;;;;;;;;5070830;28;19925;-46
2023/01/14 04:11:42;;;;;;;;;;;;;;;;;;5078625;28;19920;-43
2023/01/14 04:16:51;;;;;;;;;;;;;;;;;;5076830;28;19928;-46
2023/01/14 04:19:16;;;;;;;;;;;;;;;;;;5074144;28;19924;-47
2023/01/14 04:21:42;;;;;;;;;;;;;;;;;;5078065;28;19920;-49
2023/01/14 04:24:07;;;;;;;;;;;;;;;;;;5071530;28;20274;-45
2023/01/14 04:26:32;;;;;;;;;;;;;;;;;;5081219;28;20005;-44
2023/01/14 04:28:58;;;;;;;;;;;;;;;;;;5072842;28;20015;-46
2023/01/14 04:31:23;;;;;;;;;;;;;;;;;;5072157;28;20022;-43
2023/01/14 04:33:48;;;;;;;;;;;;;;;;;;5072098;28;20415;-44
2023/01/14 04:36:14;;;;;;;;;;;;;;;;;;5069253;28;19939;-44
2023/01/14 04:38:39;;;;;;;;;;;;;;;;;;5077855;28;19993;-42
2023/01/14 04:41:04;;;;;;;;;;;;;;;;;;5077353;28;19928;-42
2023/01/14 04:43:30;;;;;;;;;;;;;;;;;;5074039;28;19924;-42
2023/01/14 04:45:55;;;;;;;;;;;;;;;;;;5080210;28;19989;-43
2023/01/14 04:48:21;;;;;;;;;;;;;;;;;;5076111;28;19924;-43
2023/01/14 04:50:47;;;;;;;;;;;;;;;;;;5079605;28;19966;-43
2023/01/14 04:53:14;;;;;;;;;;;;;;;;;;5073435;28;19928;-44
2023/01/14 04:55:40;;;;;;;;;;;;;;;;;;5080524;28;19917;-46
2023/01/14 04:58:06;;;;;;;;;;;;;;;;;;5074119;28;19932;-43
2023/01/14 05:00:32;;;;;;;;;;;;;;;;;;5079442;28;19925;-46
2023/01/14 05:02:57;;;;;;;;;;;;;;;;;;5078852;28;20281;-43
2023/01/14 05:05:22;;;;;;;;;;;;;;;;;;5077144;28;19924;-44
2023/01/14 05:07:47;;;;;;;;;;;;;;;;;;5074681;28;20376;-42
2023/01/14 05:10:14;;;;;;;;;;;;;;;;;;5072820;28;19927;-44
2023/01/14 05:12:55;;;;;;;;;;;;;;;;;;5075271;28;19925;-43
2023/01/14 05:15:21;;;;;;;;;;;;;;;;;;5069608;28;19921;-43
2023/01/14 05:17:46;;;;;;;;;;;;;;;;;;5078014;28;19932;-43
2023/01/14 05:20:12;;;;;;;;;;;;;;;;;;5076563;28;19977;-49
2023/01/14 05:22:37;;;;;;;;;;;;;;;;;;5069408;28;19928;-47
2023/01/14 05:25:02;;;;;;;;;;;;;;;;;;5079693;28;19987;-47
2023/01/14 05:27:28;;;;;;;;;;;;;;;;;;5074758;28;19980;-47
2023/01/14 05:29:53;;;;;;;;;;;;;;;;;;5079083;28;19931;-42
2023/01/14 05:32:18;;;;;;;;;;;;;;;;;;5070508;28;20626;-46
2023/01/14 05:34:43;;;;;;;;;;;;;;;;;;5070918;28;19962;-44
2023/01/14 05:37:09;;;;;;;;;;;;;;;;;;5074324;28;19924;-43
2023/01/14 05:39:34;;;;;;;;;;;;;;;;;;5071837;28;19929;-42
2023/01/14 05:47:27;;;;;;;;;;;;;;;;;;5075387;28;19965;-45
2023/01/14 05:49:52;;;;;;;;;;;;;;;;;;5074387;28;20022;-43
2023/01/14 05:52:17;;;;;;;;;;;;;;;;;;5069455;28;19920;-43
2023/01/14 05:54:42;;;;;;;;;;;;;;;;;;5075226;28;20518;-43
2023/01/14 05:57:11;;;;;;;;;;;;;;;;;;5078653;28;19931;-41
2023/01/14 05:59:36;;;;;;;;;;;;;;;;;;5074123;28;19925;-44
2023/01/14 06:07:46;;;;;;;;;;;;;;;;;;5009770;28;19921;-44
2023/01/14 06:10:11;;;;;;;;;;;;;;;;;;5000377;28;19984;-49
2023/01/14 06:12:57;;;;;;;;;;;;;;;;;;5009933;28;19964;-44
2023/01/14 06:15:21;;;;;;;;;;;;;;;;;;5017403;28;19959;-45
2023/01/14 06:17:56;;;;;;;;;;;;;;;;;;5011395;28;19926;-46
2023/01/14 06:20:22;;;;;;;;;;;;;;;;;;5009995;28;19922;-43
2023/01/14 06:22:47;;;;;;;;;;;;;;;;;;5012407;28;20271;-45
2023/01/14 06:25:12;;;;;;;;;;;;;;;;;;5013367;28;19921;-42
2023/01/14 06:27:37;;;;;;;;;;;;;;;;;;5013972;28;19925;-44
2023/01/14 06:30:03;;;;;;;;;;;;;;;;;;5016222;28;19921;-45
2023/01/14 06:32:28;;;;;;;;;;;;;;;;;;5014291;28;19929;-43
2023/01/14 06:34:53;;;;;;;;;;;;;;;;;;5011733;28;20686;-43
2023/01/14 06:37:19;;;;;;;;;;;;;;;;;;5012400;28;19929;-44
2023/01/14 06:39:44;;;;;;;;;;;;;;;;;;5006996;28;19975;-44
2023/01/14 06:42:09;;;;;;;;;;;;;;;;;;5044723;28;20288;-46
2023/01/14 06:44:34;;;;;;;;;;;;;;;;;;5075442;28;19926;-45
2023/01/14 06:47:00;;;;;;;;;;;;;;;;;;5075151;28;19921;-52
2023/01/14 06:49:25;;;;;;;;;;;;;;;;;;5076584;28;19950;-46
2023/01/14 06:51:50;;;;;;;;;;;;;;;;;;5073324;28;19924;-46
2023/01/14 06:54:15;;;;;;;;;;;;;;;;;;5070443;28;20001;-43
2023/01/14 06:56:41;;;;;;;;;;;;;;;;;;5069679;28;19928;-42
2023/01/14 06:59:07;;;;;;;;;;;;;;;;;;5078886;28;19924;-45
2023/01/14 07:01:32;;;;;;;;;;;;;;;;;;5080961;28;20007;-44
2023/01/14 07:03:58;;;;;;;;;;;;;;;;;;5071396;28;19924;-48
2023/01/14 07:06:23;;;;;;;;;;;;;;;;;;5078679;28;19920;-46
2023/01/14 07:08:48;;;;;;;;;;;;;;;;;;5078940;28;19967;-43
2023/01/14 07:11:13;;;;;;;;;;;;;;;;;;5075561;28;19920;-42
2023/01/14 07:13:39;;;;;;;;;;;;;;;;;;5074957;28;20014;-44
2023/01/14 07:16:04;;;;;;;;;;;;;;;;;;5078504;28;19981;-43
2023/01/14 07:18:30;;;;;;;;;;;;;;;;;;5081737;28;20029;-43
2023/01/14 07:20:56;;;;;;;;;;;;;;;;;;5075012;28;19921;-44
2023/01/14 07:23:21;;;;;;;;;;;;;;;;;;5078141;28;19924;-48
2023/01/14 07:25:46;;;;;;;;;;;;;;;;;;5082730;28;19920;-44
2023/01/14 07:28:12;;;;;;;;;;;;;;;;;;5078548;28;20011;-43
2023/01/14 07:30:37;;;;;;;;;;;;;;;;;;5072166;28;19924;-42
2023/01/14 07:33:03;;;;;;;;;;;;;;;;;;5074512;28;19925;-43
2023/01/14 07:35:28;;;;;;;;;;;;;;;;;;5075859;28;19920;-45
2023/01/14 07:37:54;;;;;;;;;;;;;;;;;;5079929;28;19932;-46
2023/01/14 07:40:20;;;;;;;;;;;;;;;;;;5079819;28;19973;-42
2023/01/14 07:42:45;;;;;;;;;;;;;;;;;;5076415;28;19936;-51
2023/01/14 07:45:10;;;;;;;;;;;;;;;;;;5080057;28;19949;-45
2023/01/14 07:47:36;;;;;;;;;;;;;;;;;;5076146;28;19928;-44
2023/01/14 07:50:01;;;;;;;;;;;;;;;;;;5073571;28;20394;-44
2023/01/14 07:52:26;;;;;;;;;;;;;;;;;;5080625;28;19936;-44
2023/01/14 07:54:51;;;;;;;;;;;;;;;;;;5079025;28;19924;-43
2023/01/14 07:57:18;;;;;;;;;;;;;;;;;;5076471;28;19924;-44
2023/01/14 07:59:43;;;;;;;;;;;;;;;;;;5072984;28;19921;-43
2023/01/14 08:02:10;;;;;;;;;;;;;;;;;;5079119;28;19942;-40
2023/01/14 08:04:36;;;;;;;;;;;;;;;;;;5069882;28;19946;-43
2023/01/14 08:07:04;;;;;;;;;;;;;;;;;;5069911;28;19929;-46
2023/01/14 08:09:29;;;;;;;;;;;;;;;;;;5048280;28;19968;-42
2023/01/14 08:11:54;;;;;;;;;;;;;;;;;;5049059;28;20021;-44
2023/01/14 08:14:20;;;;;;;;;;;;;;;;;;5045245;28;20016;-46
2023/01/14 08:16:45;;;;;;;;;;;;;;;;;;5047819;28;19929;-44
2023/01/14 08:19:12;;;;;;;;;;;;;;;;;;5060281;28;19977;-49
2023/01/14 08:21:37;;;;;;;;;;;;;;;;;;5064084;28;19970;-43
2023/01/14 08:24:03;;;;;;;;;;;;;;;;;;5060424;28;20003;-45
2023/01/14 08:26:28;;;;;;;;;;;;;;;;;;5067276;28;19920;-43
2023/01/14 08:28:53;;;;;;;;;;;;;;;;;;5063679;28;19925;-45
2023/01/14 08:31:19;;;;;;;;;;;;;;;;;;5059784;28;19947;-46
2023/01/14 08:33:44;;;;;;;;;;;;;;;;;;5064388;28;20347;-49
2023/01/14 08:36:13;;;;;;;;;;;;;;;;;;5062968;28;19927;-42
2023/01/14 08:38:40;;;;;;;;;;;;;;;;;;5062305;28;19939;-44
2023/01/14 08:41:07;;;;;;;;;;;;;;;;;;5063303;28;19924;-43
2023/01/14 08:43:32;;;;;;;;;;;;;;;;;;5064451;28;20476;-43
2023/01/14 08:45:58;;;;;;;;;;;;;;;;;;5066508;28;19978;-43
2023/01/14 08:48:23;;;;;;;;;;;;;;;;;;5060406;28;19924;-43
2023/01/14 08:50:48;;;;;;;;;;;;;;;;;;5068712;28;19929;-42
2023/01/14 08:53:13;;;;;;;;;;;;;;;;;;5067737;28;19924;-42
2023/01/14 08:55:39;;;;;;;;;;;;;;;;;;5068390;28;19982;-43
2023/01/14 08:58:08;;;;;;;;;;;;;;;;;;5064953;28;20682;-44
2023/01/14 09:00:33;;;;;;;;;;;;;;;;;;5067266;28;19920;-47
2023/01/14 09:02:59;;;;;;;;;;;;;;;;;;5062120;28;20529;-43
2023/01/14 09:05:24;;;;;;;;;;;;;;;;;;5062437;28;19928;-45
2023/01/14 09:18:48;;;;;;;;;;;;;;;;;;5060167;28;19978;-43
2023/01/14 09:21:13;;;;;;;;;;;;;;;;;;5062239;28;20669;-46
2023/01/14 09:23:39;;;;;;;;;;;;;;;;;;5057686;28;20440;-46
2023/01/14 09:26:04;;;;;;;;;;;;;;;;;;5060543;28;20369;-45
2023/01/14 09:28:29;;;;;;;;;;;;;;;;;;5063115;28;19936;-43
2023/01/14 09:30:55;;;;;;;;;;;;;;;;;;5057766;28;20028;-44
2023/01/14 09:33:20;;;;;;;;;;;;;;;;;;5055387;28;20482;-45
2023/01/14 09:35:45;;;;;;;;;;;;;;;;;;5058511;28;19928;-43
2023/01/14 09:38:11;;;;;;;;;;;;;;;;;;5052433;28;19932;-43
2023/01/14 09:40:38;;;;;;;;;;;;;;;;;;5054882;28;19929;-43
2023/01/14 09:43:04;;;;;;;;;;;;;;;;;;5062519;28;19924;-47
2023/01/14 09:45:31;;;;;;;;;;;;;;;;;;5057756;28;19921;-43
2023/01/14 09:48:02;;;;;;;;;;;;;;;;;;5062136;28;19928;-43
2023/01/14 09:50:35;;;;;;;;;;;;;;;;;;5060748;28;19925;-43
2023/01/14 09:53:14;;;;;;;;;;;;;;;;;;5057859;28;19932;-45
2023/01/14 09:55:43;;;;;;;;;;;;;;;;;;5061611;28;20364;-45
2023/01/14 09:58:10;;;;;;;;;;;;;;;;;;5063541;28;20024;-44
2023/01/14 10:00:41;;;;;;;;;;;;;;;;;;5068183;28;19924;-44
2023/01/14 10:03:24;;;;;;;;;;;;;;;;;;5061364;28;20494;-44
2023/01/14 10:05:58;;;;;;;;;;;;;;;;;;5061501;28;19968;-44
2023/01/14 10:08:24;;;;;;;;;;;;;;;;;;5059523;28;20016;-43
2023/01/14 10:10:49;;;;;;;;;;;;;;;;;;5059163;28;19955;-43
2023/01/14 10:13:19;;;;;;;;;;;;;;;;;;5061047;28;19970;-43
2023/01/14 10:16:20;;;;;;;;;;;;;;;;;;5058879;28;19932;-46
2023/01/14 10:18:49;;;;;;;;;;;;;;;;;;5001463;28;19929;-44
2023/01/14 10:21:22;;;;;;;;;;;;;;;;;;5003417;28;19921;-48
2023/01/14 10:23:47;;;;;;;;;;;;;;;;;;5002246;28;20037;-43
2023/01/14 10:26:14;;;;;;;;;;;;;;;;;;5005545;28;20632;-43
2023/01/14 10:28:39;;;;;;;;;;;;;;;;;;4998460;28;20306;-43
2023/01/14 10:31:05;;;;;;;;;;;;;;;;;;4998136;28;19929;-43
2023/01/14 10:33:31;;;;;;;;;;;;;;;;;;4999590;28;19926;-44
2023/01/14 10:36:04;;;;;;;;;;;;;;;;;;5001851;28;19921;-43
2023/01/14 10:38:30;;;;;;;;;;;;;;;;;;5002930;28;19922;-43
2023/01/14 10:41:00;;;;;;;;;;;;;;;;;;5005369;28;20024;-43
2023/01/14 10:43:31;;;;;;;;;;;;;;;;;;5004173;28;19952;-43
2023/01/14 10:45:56;;;;;;;;;;;;;;;;;;5001035;28;20337;-43
2023/01/14 10:48:22;;;;;;;;;;;;;;;;;;5006047;28;19925;-44
2023/01/14 10:50:47;;;;;;;;;;;;;;;;;;5006012;28;20464;-43
2023/01/14 10:53:14;;;;;;;;;;;;;;;;;;5034517;28;20008;-44
2023/01/14 10:55:45;;;;;;;;;;;;;;;;;;5053029;28;19921;-42
2023/01/14 10:58:14;;;;;;;;;;;;;;;;;;5048410;28;19929;-43
2023/01/14 11:00:41;;;;;;;;;;;;;;;;;;5052463;28;19971;-43
2023/01/14 11:03:07;;;;;;;;;;;;;;;;;;5055309;28;20392;-43
2023/01/14 11:05:34;;;;;;;;;;;;;;;;;;5075715;28;19923;-43
2023/01/14 11:08:02;;;;;;;;;;;;;;;;;;5064431;28;20373;-46
2023/01/14 11:10:28;;;;;;;;;;;;;;;;;;5071277;28;19925;-43
2023/01/14 11:12:55;;;;;;;;;;;;;;;;;;5071325;28;19928;-43
2023/01/14 11:15:40;;;;;;;;;;;;;;;;;;5071891;28;20007;-45
2023/01/14 11:18:17;;;;;;;;;;;;;;;;;;5072763;28;19967;-43
2023/01/14 11:20:50;;;;;;;;;;;;;;;;;;5067549;28;19929;-43
2023/01/14 11:23:25;;;;;;;;;;;;;;;;;;5073266;28;19989;-44
2023/01/14 11:25:51;;;;;;;;;;;;;;;;;;5101025;28;19970;-43
2023/01/14 11:28:16;;;;;;;;;;;;;;;;;;5074773;28;20400;-45
2023/01/14 11:30:43;;;;;;;;;;;;;;;;;;5076080;28;20280;-43
2023/01/14 11:33:16;;;;;;;;;;;;;;;;;;5072876;28;19934;-44
2023/01/14 11:35:48;;;;;;;;;;;;;;;;;;5074587;28;19950;-43
2023/01/14 11:38:15;;;;;;;;;;;;;;;;;;5071485;28;20304;-44
2023/01/14 11:43:25;;;;;;;;;;;;;;;;;;5065941;28;19990;-45
2023/01/14 11:46:09;;;;;;;;;;;;;;;;;;5073675;28;19920;-43
2023/01/14 11:48:34;;;;;;;;;;;;;;;;;;5111615;27;19932;-45
2023/01/14 11:51:03;;;;;;;;;;;;;;;;;;5076066;28;19927;-43
2023/01/14 11:53:49;;;;;;;;;;;;;;;;;;5075815;28;19932;-43
2023/01/14 11:56:20;;;;;;;;;;;;;;;;;;5074955;28;19967;-44
2023/01/14 11:58:46;;;;;;;;;;;;;;;;;;5072375;28;20381;-45
2023/01/14 12:01:11;;;;;;;;;;;;;;;;;;5077465;28;20007;-47
2023/01/14 12:03:45;;;;;;;;;;;;;;;;;;5074834;28;19928;-44
2023/01/14 12:06:14;;;;;;;;;;;;;;;;;;5085242;28;19974;-44
2023/01/14 12:08:41;;;;;;;;;;;;;;;;;;5077172;28;19926;-47
2023/01/14 12:11:10;;;;;;;;;;;;;;;;;;5074819;28;19928;-43
2023/01/14 12:16:51;;;;;;;;;;;;;;;;;;5077455;28;20387;-45
2023/01/14 12:19:23;;;;;;;;;;;;;;;;;;5012135;28;19925;-43
2023/01/14 12:22:17;;;;;;;;;;;;;;;;;;5016065;28;20028;-45
2023/01/14 12:24:46;;;;;;;;;;;;;;;;;;5013656;28;20382;-46
2023/01/14 12:27:41;;;;;;;;;;;;;;;;;;5012326;28;19943;-47
2023/01/14 12:30:20;;;;;;;;;;;;;;;;;;5016316;28;20294;-44
2023/01/14 12:32:49;;;;;;;;;;;;;;;;;;5011871;28;19987;-43
2023/01/14 12:35:15;;;;;;;;;;;;;;;;;;5017103;28;19926;-44
2023/01/14 12:45:41;;;;;;;;;;;;;;;;;;5018774;28;19925;-44
2023/01/14 12:46:12;;;;;;;;;;;;;;;;;;5011780;28;19932;-43
2023/01/14 12:48:37;;;;;;;;;;;;;;;;;;5014961;28;20392;-43
2023/01/14 12:51:23;;;;;;;;;;;;;;;;;;5017458;28;19921;-44
2023/01/14 12:53:53;;;;;;;;;;;;;;;;;;5009063;28;19925;-44
2023/01/14 12:56:20;;;;;;;;;;;;;;;;;;5058213;28;19981;-44
2023/01/14 12:58:52;;;;;;;;;;;;;;;;;;5075791;28;19935;-45
2023/01/14 13:01:21;;;;;;;;;;;;;;;;;;5077871;28;20046;-43
2023/01/14 13:03:48;;;;;;;;;;;;;;;;;;5080573;28;20281;-45
2023/01/14 13:06:17;;;;;;;;;;;;;;;;;;5072517;28;19966;-46
2023/01/14 13:08:48;;;;;;;;;;;;;;;;;;5075451;28;19930;-44
2023/01/14 13:11:20;;;;;;;;;;;;;;;;;;5075666;28;19928;-44
2023/01/14 13:13:50;;;;;;;;;;;;;;;;;;5065106;28;19952;-47
2023/01/14 13:16:34;;;;;;;;;;;;;;;;;;5075501;28;19924;-44
2023/01/14 13:19:00;;;;;;;;;;;;;;;;;;5076758;28;20004;-45
2023/01/14 13:21:44;;;;;;;;;;;;;;;;;;5074307;28;20385;-50
2023/01/14 13:24:28;;;;;;;;;;;;;;;;;;5068554;28;19930;-46
2023/01/14 13:26:55;;;;;;;;;;;;;;;;;;5071513;28;19924;-44
2023/01/14 13:29:31;;;;;;;;;;;;;;;;;;5069633;28;19925;-44
2023/01/14 13:31:57;;;;;;;;;;;;;;;;;;5073060;28;20344;-49
2023/01/14 13:34:23;;;;;;;;;;;;;;;;;;5079916;28;20017;-44
2023/01/14 13:37:08;;;;;;;;;;;;;;;;;;5078742;28;19917;-46
2023/01/14 13:39:33;;;;;;;;;;;;;;;;;;5072948;28;20380;-47
2023/01/14 13:41:59;;;;;;;;;;;;;;;;;;5073734;28;19920;-43
2023/01/14 13:44:32;;;;;;;;;;;;;;;;;;5064900;28;19932;-43
2023/01/14 13:47:17;;;;;;;;;;;;;;;;;;5076103;28;19928;-46
2023/01/14 13:49:50;;;;;;;;;;;;;;;;;;5074717;28;19932;-47
2023/01/14 13:52:23;;;;;;;;;;;;;;;;;;5074860;28;19980;-46
2023/01/14 13:54:59;;;;;;;;;;;;;;;;;;5072836;28;19925;-44
2023/01/14 13:57:31;;;;;;;;;;;;;;;;;;5077382;28;20418;-44
2023/01/14 13:59:58;;;;;;;;;;;;;;;;;;5073160;28;20388;-52
2023/01/14 14:02:42;;;;;;;;;;;;;;;;;;5075323;28;19924;-44
2023/01/14 14:05:13;;;;;;;;;;;;;;;;;;5075417;28;19927;-47
2023/01/14 14:07:48;;;;;;;;;;;;;;;;;;5073826;28;19932;-48
2023/01/14 14:10:20;;;;;;;;;;;;;;;;;;5073583;28;20384;-44
2023/01/14 14:15:43;;;;;;;;;;;;;;;;;;5075791;28;19966;-44
2023/01/14 14:18:15;;;;;;;;;;;;;;;;;;5070616;28;19975;-46
2023/01/14 14:20:42;;;;;;;;;;;;;;;;;;5073785;28;20008;-44
2023/01/14 14:23:13;;;;;;;;;;;;;;;;;;5075082;28;20284;-44
2023/01/14 14:25:39;;;;;;;;;;;;;;;;;;5074589;28;20067;-49
2023/01/14 14:28:12;;;;;;;;;;;;;;;;;;5073233;28;20017;-51
2023/01/14 14:30:46;;;;;;;;;;;;;;;;;;5075854;28;19920;-47
2023/01/14 14:33:30;;;;;;;;;;;;;;;;;;5073603;28;19924;-49
2023/01/14 14:35:56;;;;;;;;;;;;;;;;;;5073845;28;19928;-47
2023/01/14 14:38:21;;;;;;;;;;;;;;;;;;5071308;28;19925;-44
2023/01/14 14:40:48;;;;;;;;;;;;;;;;;;5069761;28;19990;-44
2023/01/14 14:43:24;;;;;;;;;;;;;;;;;;5070761;28;20023;-44
2023/01/14 14:46:02;;;;;;;;;;;;;;;;;;5068255;28;19920;-44
2023/01/14 14:48:29;;;;;;;;;;;;;;;;;;5087948;28;20372;-47
2023/01/14 14:50:54;;;;;;;;;;;;;;;;;;5072533;28;20372;-49
2023/01/14 14:53:27;;;;;;;;;;;;;;;;;;5069987;28;19977;-50
2023/01/14 14:55:53;;;;;;;;;;;;;;;;;;5071153;28;20380;-45
2023/01/14 14:58:20;;;;;;;;;;;;;;;;;;5072150;28;19950;-46
2023/01/14 15:00:50;;;;;;;;;;;;;;;;;;5089029;28;20380;-44
2023/01/14 15:03:18;;;;;;;;;;;;;;;;;;5073051;28;20001;-44
2023/01/14 15:05:43;;;;;;;;;;;;;;;;;;5069824;28;19920;-50
2023/01/14 15:08:10;;;;;;;;;;;;;;;;;;5077117;28;19989;-50
2023/01/14 15:10:36;;;;;;;;;;;;;;;;;;5071897;28;19924;-49
2023/01/14 15:13:01;;;;;;;;;;;;;;;;;;5065761;28;19928;-46
2023/01/14 15:15:28;;;;;;;;;;;;;;;;;;5073071;28;19953;-43
2023/01/14 15:18:04;;;;;;;;;;;;;;;;;;5075476;28;19933;-48
2023/01/14 15:20:30;;;;;;;;;;;;;;;;;;5071111;28;19942;-48
2023/01/14 15:22:55;;;;;;;;;;;;;;;;;;5076601;28;20459;-48
2023/01/14 15:25:21;;;;;;;;;;;;;;;;;;5076353;28;19943;-46
2023/01/14 15:27:50;;;;;;;;;;;;;;;;;;5072123;28;19932;-44
2023/01/14 15:30:21;;;;;;;;;;;;;;;;;;5072152;28;19924;-46
2023/01/14 15:32:47;;;;;;;;;;;;;;;;;;5081103;28;20007;-48
2023/01/14 15:35:27;;;;;;;;;;;;;;;;;;5077281;28;20003;-47
2023/01/14 15:37:56;;;;;;;;;;;;;;;;;;5075245;28;20357;-50
2023/01/14 15:40:30;;;;;;;;;;;;;;;;;;5084223;28;19920;-44
2023/01/14 15:42:56;;;;;;;;;;;;;;;;;;5073586;28;20362;-49
2023/01/14 15:45:22;;;;;;;;;;;;;;;;;;5082348;28;20019;-50
2023/01/14 15:47:53;;;;;;;;;;;;;;;;;;5079042;28;19939;-49
2023/01/14 15:50:20;;;;;;;;;;;;;;;;;;5078127;28;19939;-50
2023/01/14 15:52:46;;;;;;;;;;;;;;;;;;5077825;28;19932;-50
2023/01/14 15:55:22;;;;;;;;;;;;;;;;;;5077966;28;19920;-47
2023/01/14 15:57:48;;;;;;;;;;;;;;;;;;5077321;28;19924;-49
2023/01/14 16:00:13;;;;;;;;;;;;;;;;;;5077438;28;19920;-50
2023/01/14 16:02:39;;;;;;;;;;;;;;;;;;5076513;28;20399;-46
2023/01/14 16:05:23;;;;;;;;;;;;;;;;;;5077602;28;19920;-49
2023/01/14 16:07:49;;;;;;;;;;;;;;;;;;5071098;28;19924;-49
2023/01/14 16:10:14;;;;;;;;;;;;;;;;;;5079590;28;19928;-51
2023/01/14 16:12:40;;;;;;;;;;;;;;;;;;5077630;28;20019;-49
2023/01/14 16:15:15;;;;;;;;;;;;;;;;;;5077919;28;19950;-44
2023/01/14 16:17:40;;;;;;;;;;;;;;;;;;5076076;28;19924;-44
2023/01/14 16:20:12;;;;;;;;;;;;;;;;;;5072715;28;19943;-43
2023/01/14 16:22:37;;;;;;;;;;;;;;;;;;5075451;28;19935;-42
2023/01/14 16:25:02;;;;;;;;;;;;;;;;;;5077405;28;19928;-44
2023/01/14 16:27:27;;;;;;;;;;;;;;;;;;5075728;28;19920;-43
2023/01/14 16:29:53;;;;;;;;;;;;;;;;;;5074969;28;20036;-45
2023/01/14 16:32:19;;;;;;;;;;;;;;;;;;5072070;28;19921;-42
2023/01/14 16:34:44;;;;;;;;;;;;;;;;;;5078515;28;19920;-44
2023/01/14 16:37:10;;;;;;;;;;;;;;;;;;5067685;28;20737;-42
2023/01/14 16:39:35;;;;;;;;;;;;;;;;;;5077361;28;20281;-42
2023/01/14 16:42:00;;;;;;;;;;;;;;;;;;5070626;28;19920;-43
2023/01/14 16:44:26;;;;;;;;;;;;;;;;;;5075874;28;19929;-43
2023/01/14 16:46:51;;;;;;;;;;;;;;;;;;5073875;28;19921;-43
2023/01/14 16:49:16;;;;;;;;;;;;;;;;;;5071620;28;19925;-42
2023/01/14 16:51:42;;;;;;;;;;;;;;;;;;5073406;28;20355;-42
2023/01/14 16:54:14;;;;;;;;;;;;;;;;;;5071745;28;19925;-42
2023/01/14 16:56:40;;;;;;;;;;;;;;;;;;5074449;28;20361;-43
2023/01/14 16:59:05;;;;;;;;;;;;;;;;;;5074746;28;19935;-42
2023/01/14 17:01:30;;;;;;;;;;;;;;;;;;5071448;28;19924;-42
2023/01/14 17:03:56;;;;;;;;;;;;;;;;;;5074156;28;19924;-42
2023/01/14 17:06:21;;;;;;;;;;;;;;;;;;5071558;28;20024;-42
2023/01/14 17:08:46;;;;;;;;;;;;;;;;;;5072419;28;19931;-47
2023/01/14 17:13:56;;;;;;;;;;;;;;;;;;5072203;28;19979;-43
2023/01/14 17:16:22;;;;;;;;;;;;;;;;;;5070433;28;19951;-46
2023/01/14 17:18:47;;;;;;;;;;;;;;;;;;5070161;28;20403;-43
2023/01/14 17:21:12;;;;;;;;;;;;;;;;;;5073805;28;19920;-41
2023/01/14 17:23:38;;;;;;;;;;;;;;;;;;5075961;28;19928;-42
2023/01/14 17:26:07;;;;;;;;;;;;;;;;;;5074736;28;19923;-45
2023/01/14 17:28:32;;;;;;;;;;;;;;;;;;5076820;28;20304;-43
2023/01/14 17:30:57;;;;;;;;;;;;;;;;;;5072164;28;19920;-42
2023/01/14 17:33:23;;;;;;;;;;;;;;;;;;5069290;28;19974;-44
2023/01/14 17:35:48;;;;;;;;;;;;;;;;;;5074737;28;19943;-42
2023/01/14 17:38:13;;;;;;;;;;;;;;;;;;5073881;28;20027;-43
2023/01/14 17:40:38;;;;;;;;;;;;;;;;;;5072878;28;19924;-43